sensor_id;sensor_type;location;lat;lon;timestamp;temperature;humidity
68109;SHT30;54893;49.864;19.084;2024-03-08T00:04:01;0.87;96.06
68109;SHT30;54893;49.864;19.084;2024-03-08T00:09:01;0.88;95.92
68109;SHT30;54893;49.864;19.084;2024-03-08T00:14:02;0.85;95.83
68109;SHT30;54893;49.864;19.084;2024-03-08T00:19:02;0.84;95.92
68109;SHT30;54893;49.864;19.084;2024-03-08T00:24:02;0.80;96.18
68109;SHT30;54893;49.864;19.084;2024-03-08T00:29:03;0.80;96.04
68109;SHT30;54893;49.864;19.084;2024-03-08T00:34:03;0.78;96.32
68109;SHT30;54893;49.864;19.084;2024-03-08T00:39:04;0.75;96.29
68109;SHT30;54893;49.864;19.084;2024-03-08T00:44:06;0.77;96.22
68109;SHT30;54893;49.864;19.084;2024-03-08T00:49:07;0.75;96.22
68109;SHT30;54893;49.864;19.084;2024-03-08T00:54:07;0.74;96.22
68109;SHT30;54893;49.864;19.084;2024-03-08T00:59:07;0.65;96.38
68109;SHT30;54893;49.864;19.084;2024-03-08T01:04:08;0.68;96.22
68109;SHT30;54893;49.864;19.084;2024-03-08T01:09:08;0.65;96.25
68109;SHT30;54893;49.864;19.084;2024-03-08T01:14:09;0.57;96.46
68109;SHT30;54893;49.864;19.084;2024-03-08T01:19:09;0.53;96.70
68109;SHT30;54893;49.864;19.084;2024-03-08T01:24:10;0.50;96.77
68109;SHT30;54893;49.864;19.084;2024-03-08T01:29:10;0.50;96.51
68109;SHT30;54893;49.864;19.084;2024-03-08T01:34:10;0.49;96.56
68109;SHT30;54893;49.864;19.084;2024-03-08T01:39:11;0.49;96.54
68109;SHT30;54893;49.864;19.084;2024-03-08T01:44:11;0.49;96.50
68109;SHT30;54893;49.864;19.084;2024-03-08T01:49:16;0.46;96.50
68109;SHT30;54893;49.864;19.084;2024-03-08T01:54:19;0.47;96.73
68109;SHT30;54893;49.864;19.084;2024-03-08T01:59:20;0.43;96.77
68109;SHT30;54893;49.864;19.084;2024-03-08T02:04:20;0.46;96.66
68109;SHT30;54893;49.864;19.084;2024-03-08T02:09:21;0.43;96.86
68109;SHT30;54893;49.864;19.084;2024-03-08T02:14:22;0.46;96.69
68109;SHT30;54893;49.864;19.084;2024-03-08T02:19:23;0.40;96.95
68109;SHT30;54893;49.864;19.084;2024-03-08T02:24:24;0.37;96.97
68109;SHT30;54893;49.864;19.084;2024-03-08T02:29:24;0.36;97.23
68109;SHT30;54893;49.864;19.084;2024-03-08T02:34:25;0.34;97.08
68109;SHT30;54893;49.864;19.084;2024-03-08T02:39:25;0.28;97.13
68109;SHT30;54893;49.864;19.084;2024-03-08T02:44:26;0.24;97.48
68109;SHT30;54893;49.864;19.084;2024-03-08T02:49:26;0.18;97.61
68109;SHT30;54893;49.864;19.084;2024-03-08T02:54:27;0.16;97.62
68109;SHT30;54893;49.864;19.084;2024-03-08T02:59:27;0.10;97.50
68109;SHT30;54893;49.864;19.084;2024-03-08T03:04:27;0.05;97.24
68109;SHT30;54893;49.864;19.084;2024-03-08T03:09:28;-0.01;97.26
68109;SHT30;54893;49.864;19.084;2024-03-08T03:14:28;-0.08;97.65
68109;SHT30;54893;49.864;19.084;2024-03-08T03:19:28;-0.05;97.54
68109;SHT30;54893;49.864;19.084;2024-03-08T03:24:30;-0.05;97.21
68109;SHT30;54893;49.864;19.084;2024-03-08T03:29:31;-0.04;97.23
68109;SHT30;54893;49.864;19.084;2024-03-08T03:34:31;-0.01;97.36
68109;SHT30;54893;49.864;19.084;2024-03-08T03:39:32;0.03;97.19
68109;SHT30;54893;49.864;19.084;2024-03-08T03:44:34;0.06;97.00
68109;SHT30;54893;49.864;19.084;2024-03-08T03:49:34;0.06;97.17
68109;SHT30;54893;49.864;19.084;2024-03-08T03:54:35;0.09;96.97
68109;SHT30;54893;49.864;19.084;2024-03-08T03:59:35;0.05;96.98
68109;SHT30;54893;49.864;19.084;2024-03-08T04:04:36;0.06;97.10
68109;SHT30;54893;49.864;19.084;2024-03-08T04:09:36;0.05;97.25
68109;SHT30;54893;49.864;19.084;2024-03-08T04:14:37;0.13;96.94
68109;SHT30;54893;49.864;19.084;2024-03-08T04:19:38;0.07;97.22
68109;SHT30;54893;49.864;19.084;2024-03-08T04:24:39;0.07;97.18
68109;SHT30;54893;49.864;19.084;2024-03-08T04:29:40;0.05;97.12
68109;SHT30;54893;49.864;19.084;2024-03-08T04:34:41;0.07;97.21
68109;SHT30;54893;49.864;19.084;2024-03-08T04:39:41;0.09;97.07
68109;SHT30;54893;49.864;19.084;2024-03-08T04:44:42;0.05;96.92
68109;SHT30;54893;49.864;19.084;2024-03-08T04:49:43;0.03;96.92
68109;SHT30;54893;49.864;19.084;2024-03-08T04:54:43;0.02;96.87
68109;SHT30;54893;49.864;19.084;2024-03-08T04:59:45;0.05;96.78
68109;SHT30;54893;49.864;19.084;2024-03-08T05:04:45;0.06;96.87
68109;SHT30;54893;49.864;19.084;2024-03-08T05:09:45;0.10;96.77
68109;SHT30;54893;49.864;19.084;2024-03-08T05:14:51;0.13;96.57
68109;SHT30;54893;49.864;19.084;2024-03-08T05:19:51;0.20;96.49
68109;SHT30;54893;49.864;19.084;2024-03-08T05:24:52;0.23;96.44
68109;SHT30;54893;49.864;19.084;2024-03-08T05:29:52;0.23;96.65
68109;SHT30;54893;49.864;19.084;2024-03-08T05:34:53;0.27;96.58
68109;SHT30;54893;49.864;19.084;2024-03-08T05:39:53;0.33;96.49
68109;SHT30;54893;49.864;19.084;2024-03-08T05:44:54;0.30;96.38
68109;SHT30;54893;49.864;19.084;2024-03-08T05:49:57;0.34;96.21
68109;SHT30;54893;49.864;19.084;2024-03-08T05:54:57;0.40;96.07
68109;SHT30;54893;49.864;19.084;2024-03-08T05:59:58;0.53;95.91
68109;SHT30;54893;49.864;19.084;2024-03-08T06:04:58;0.57;95.82
68109;SHT30;54893;49.864;19.084;2024-03-08T06:09:58;0.65;95.61
68109;SHT30;54893;49.864;19.084;2024-03-08T06:15:00;0.71;95.43
68109;SHT30;54893;49.864;19.084;2024-03-08T06:20:01;0.74;95.21
68109;SHT30;54893;49.864;19.084;2024-03-08T06:25:01;0.81;94.92
68109;SHT30;54893;49.864;19.084;2024-03-08T06:30:02;0.89;94.98
68109;SHT30;54893;49.864;19.084;2024-03-08T06:35:05;0.99;94.57
68109;SHT30;54893;49.864;19.084;2024-03-08T06:40:07;1.05;94.56
68109;SHT30;54893;49.864;19.084;2024-03-08T06:45:10;1.19;94.38
68109;SHT30;54893;49.864;19.084;2024-03-08T06:50:12;1.25;94.12
68109;SHT30;54893;49.864;19.084;2024-03-08T06:55:13;1.39;93.86
68109;SHT30;54893;49.864;19.084;2024-03-08T07:00:14;1.45;93.47
68109;SHT30;54893;49.864;19.084;2024-03-08T07:05:18;1.58;93.58
68109;SHT30;54893;49.864;19.084;2024-03-08T07:10:18;1.77;93.11
68109;SHT30;54893;49.864;19.084;2024-03-08T07:15:19;1.92;92.53
68109;SHT30;54893;49.864;19.084;2024-03-08T07:20:19;1.94;92.28
68109;SHT30;54893;49.864;19.084;2024-03-08T07:25:20;2.14;91.87
68109;SHT30;54893;49.864;19.084;2024-03-08T07:30:22;2.27;90.87
68109;SHT30;54893;49.864;19.084;2024-03-08T07:35:41;2.38;92.07
68109;SHT30;54893;49.864;19.084;2024-03-08T07:40:45;2.48;91.61
68109;SHT30;54893;49.864;19.084;2024-03-08T07:45:46;2.74;91.00
68109;SHT30;54893;49.864;19.084;2024-03-08T07:50:46;2.94;90.89
68109;SHT30;54893;49.864;19.084;2024-03-08T07:55:46;3.33;89.28
68109;SHT30;54893;49.864;19.084;2024-03-08T08:00:47;3.38;87.90
68109;SHT30;54893;49.864;19.084;2024-03-08T08:05:49;3.30;89.43
68109;SHT30;54893;49.864;19.084;2024-03-08T08:10:49;3.18;87.84
68109;SHT30;54893;49.864;19.084;2024-03-08T08:15:49;3.08;87.49
68109;SHT30;54893;49.864;19.084;2024-03-08T08:20:50;3.39;90.07
68109;SHT30;54893;49.864;19.084;2024-03-08T08:25:52;3.05;88.24
68109;SHT30;54893;49.864;19.084;2024-03-08T08:30:52;3.23;88.64
68109;SHT30;54893;49.864;19.084;2024-03-08T08:35:54;2.96;88.11
68109;SHT30;54893;49.864;19.084;2024-03-08T08:40:54;2.87;87.98
68109;SHT30;54893;49.864;19.084;2024-03-08T08:45:56;3.30;88.99
68109;SHT30;54893;49.864;19.084;2024-03-08T08:50:56;3.50;88.45
68109;SHT30;54893;49.864;19.084;2024-03-08T08:55:57;3.72;89.21
68109;SHT30;54893;49.864;19.084;2024-03-08T09:00:57;3.50;87.40
68109;SHT30;54893;49.864;19.084;2024-03-08T09:05:57;3.64;87.81
68109;SHT30;54893;49.864;19.084;2024-03-08T09:10:58;3.66;87.66
68109;SHT30;54893;49.864;19.084;2024-03-08T09:16:00;3.59;87.74
68109;SHT30;54893;49.864;19.084;2024-03-08T09:21:00;3.28;86.68
68109;SHT30;54893;49.864;19.084;2024-03-08T09:26:01;3.62;87.44
68109;SHT30;54893;49.864;19.084;2024-03-08T09:31:03;3.56;87.40
68109;SHT30;54893;49.864;19.084;2024-03-08T09:36:04;3.93;88.14
68109;SHT30;54893;49.864;19.084;2024-03-08T09:41:04;3.89;87.29
68109;SHT30;54893;49.864;19.084;2024-03-08T09:46:05;3.66;88.04
68109;SHT30;54893;49.864;19.084;2024-03-08T09:51:07;3.90;87.02
68109;SHT30;54893;49.864;19.084;2024-03-08T09:56:08;3.90;87.47
68109;SHT30;54893;49.864;19.084;2024-03-08T10:01:08;3.82;87.12
68109;SHT30;54893;49.864;19.084;2024-03-08T10:06:09;4.57;87.18
68109;SHT30;54893;49.864;19.084;2024-03-08T10:11:10;4.34;86.09
68109;SHT30;54893;49.864;19.084;2024-03-08T10:16:12;4.16;86.88
68109;SHT30;54893;49.864;19.084;2024-03-08T10:21:12;4.88;85.26
68109;SHT30;54893;49.864;19.084;2024-03-08T10:26:16;4.86;84.36
68109;SHT30;54893;49.864;19.084;2024-03-08T10:31:17;4.72;85.71
68109;SHT30;54893;49.864;19.084;2024-03-08T10:36:18;5.08;83.36
68109;SHT30;54893;49.864;19.084;2024-03-08T10:41:22;5.15;82.92
68109;SHT30;54893;49.864;19.084;2024-03-08T10:46:33;5.47;83.87
68109;SHT30;54893;49.864;19.084;2024-03-08T10:51:38;5.56;83.48
68109;SHT30;54893;49.864;19.084;2024-03-08T10:56:41;5.46;82.26
68109;SHT30;54893;49.864;19.084;2024-03-08T11:01:41;5.70;83.54
68109;SHT30;54893;49.864;19.084;2024-03-08T11:06:42;5.60;83.72
68109;SHT30;54893;49.864;19.084;2024-03-08T11:11:45;6.14;83.29
68109;SHT30;54893;49.864;19.084;2024-03-08T11:16:46;5.59;81.63
68109;SHT30;54893;49.864;19.084;2024-03-08T11:21:47;5.93;82.92
68109;SHT30;54893;49.864;19.084;2024-03-08T11:26:47;5.09;85.04
68109;SHT30;54893;49.864;19.084;2024-03-08T11:31:48;5.98;83.66
68109;SHT30;54893;49.864;19.084;2024-03-08T11:36:48;5.97;83.09
68109;SHT30;54893;49.864;19.084;2024-03-08T11:41:48;5.66;83.97
68109;SHT30;54893;49.864;19.084;2024-03-08T11:46:49;5.63;82.80
68109;SHT30;54893;49.864;19.084;2024-03-08T11:51:52;5.84;83.77
68109;SHT30;54893;49.864;19.084;2024-03-08T11:56:57;5.46;83.92
68109;SHT30;54893;49.864;19.084;2024-03-08T12:02:07;5.36;84.64
68109;SHT30;54893;49.864;19.084;2024-03-08T12:07:11;5.54;83.80
68109;SHT30;54893;49.864;19.084;2024-03-08T12:12:14;5.57;83.25
68109;SHT30;54893;49.864;19.084;2024-03-08T12:17:14;5.16;84.76
68109;SHT30;54893;49.864;19.084;2024-03-08T12:22:15;5.61;84.27
68109;SHT30;54893;49.864;19.084;2024-03-08T12:27:19;5.60;84.80
68109;SHT30;54893;49.864;19.084;2024-03-08T12:32:20;5.84;83.61
68109;SHT30;54893;49.864;19.084;2024-03-08T12:37:23;6.11;83.12
68109;SHT30;54893;49.864;19.084;2024-03-08T12:42:26;5.53;82.76
68109;SHT30;54893;49.864;19.084;2024-03-08T12:47:29;5.46;84.48
68109;SHT30;54893;49.864;19.084;2024-03-08T12:52:30;5.66;83.42
68109;SHT30;54893;49.864;19.084;2024-03-08T12:57:31;6.04;83.51
68109;SHT30;54893;49.864;19.084;2024-03-08T13:02:31;6.20;83.81
68109;SHT30;54893;49.864;19.084;2024-03-08T13:07:32;6.01;83.23
68109;SHT30;54893;49.864;19.084;2024-03-08T13:12:33;5.98;83.27
68109;SHT30;54893;49.864;19.084;2024-03-08T13:17:38;5.81;83.05
68109;SHT30;54893;49.864;19.084;2024-03-08T13:22:40;6.21;81.96
68109;SHT30;54893;49.864;19.084;2024-03-08T13:27:40;6.07;83.87
68109;SHT30;54893;49.864;19.084;2024-03-08T13:32:42;5.53;82.47
68109;SHT30;54893;49.864;19.084;2024-03-08T13:37:46;5.89;84.01
68109;SHT30;54893;49.864;19.084;2024-03-08T13:42:47;6.03;83.94
68109;SHT30;54893;49.864;19.084;2024-03-08T13:47:50;6.34;83.02
68109;SHT30;54893;49.864;19.084;2024-03-08T13:52:53;6.04;82.40
68109;SHT30;54893;49.864;19.084;2024-03-08T13:57:54;6.03;83.00
68109;SHT30;54893;49.864;19.084;2024-03-08T14:02:54;5.84;83.39
68109;SHT30;54893;49.864;19.084;2024-03-08T14:07:55;6.01;84.25
68109;SHT30;54893;49.864;19.084;2024-03-08T14:12:55;5.81;83.61
68109;SHT30;54893;49.864;19.084;2024-03-08T14:17:56;5.74;83.59
68109;SHT30;54893;49.864;19.084;2024-03-08T14:22:57;5.57;84.05
68109;SHT30;54893;49.864;19.084;2024-03-08T14:27:58;5.43;84.69
68109;SHT30;54893;49.864;19.084;2024-03-08T14:33:02;5.53;83.52
68109;SHT30;54893;49.864;19.084;2024-03-08T14:38:03;5.47;84.83
68109;SHT30;54893;49.864;19.084;2024-03-08T14:43:03;5.57;84.39
68109;SHT30;54893;49.864;19.084;2024-03-08T14:48:04;5.32;84.71
68109;SHT30;54893;49.864;19.084;2024-03-08T14:53:05;5.71;84.61
68109;SHT30;54893;49.864;19.084;2024-03-08T14:58:06;5.69;84.16
68109;SHT30;54893;49.864;19.084;2024-03-08T15:03:07;5.66;84.65
68109;SHT30;54893;49.864;19.084;2024-03-08T15:08:07;5.25;84.44
68109;SHT30;54893;49.864;19.084;2024-03-08T15:13:11;5.44;84.76
68109;SHT30;54893;49.864;19.084;2024-03-08T15:18:24;7.64;81.94
68109;SHT30;54893;49.864;19.084;2024-03-08T15:23:35;9.52;76.51
68109;SHT30;54893;49.864;19.084;2024-03-08T15:28:36;9.87;73.62
68109;SHT30;54893;49.864;19.084;2024-03-08T15:33:39;9.97;75.89
68109;SHT30;54893;49.864;19.084;2024-03-08T15:38:48;8.82;79.51
68109;SHT30;54893;49.864;19.084;2024-03-08T15:43:49;5.81;86.07
68109;SHT30;54893;49.864;19.084;2024-03-08T15:48:50;5.13;86.26
68109;SHT30;54893;49.864;19.084;2024-03-08T15:53:51;4.69;85.94
68109;SHT30;54893;49.864;19.084;2024-03-08T15:58:56;4.37;86.76
68109;SHT30;54893;49.864;19.084;2024-03-08T16:03:56;3.91;87.84
68109;SHT30;54893;49.864;19.084;2024-03-08T16:08:58;3.64;87.93
68109;SHT30;54893;49.864;19.084;2024-03-08T16:13:59;3.40;87.89
68109;SHT30;54893;49.864;19.084;2024-03-08T16:19:00;3.22;87.76
68109;SHT30;54893;49.864;19.084;2024-03-08T16:24:02;3.08;89.85
68109;SHT30;54893;49.864;19.084;2024-03-08T16:29:03;2.82;88.68
68109;SHT30;54893;49.864;19.084;2024-03-08T16:34:04;2.64;89.89
68109;SHT30;54893;49.864;19.084;2024-03-08T16:39:05;2.48;91.47
68109;SHT30;54893;49.864;19.084;2024-03-08T16:44:06;2.37;89.37
68109;SHT30;54893;49.864;19.084;2024-03-08T16:49:06;2.24;89.75
68109;SHT30;54893;49.864;19.084;2024-03-08T16:54:07;2.09;92.27
68109;SHT30;54893;49.864;19.084;2024-03-08T16:59:08;1.86;92.26
68109;SHT30;54893;49.864;19.084;2024-03-08T17:04:10;1.89;90.58
68109;SHT30;54893;49.864;19.084;2024-03-08T17:09:12;1.80;91.12
68109;SHT30;54893;49.864;19.084;2024-03-08T17:14:13;1.72;91.18
68109;SHT30;54893;49.864;19.084;2024-03-08T17:19:14;1.63;90.57
68109;SHT30;54893;49.864;19.084;2024-03-08T17:24:14;1.45;91.63
68109;SHT30;54893;49.864;19.084;2024-03-08T17:29:17;1.28;92.85
68109;SHT30;54893;49.864;19.084;2024-03-08T17:34:21;1.15;92.44
68109;SHT30;54893;49.864;19.084;2024-03-08T17:39:22;1.11;92.86
68109;SHT30;54893;49.864;19.084;2024-03-08T17:44:26;0.94;94.27
68109;SHT30;54893;49.864;19.084;2024-03-08T17:49:26;0.84;95.37
68109;SHT30;54893;49.864;19.084;2024-03-08T17:54:27;0.87;93.24
68109;SHT30;54893;49.864;19.084;2024-03-08T17:59:27;1.06;92.93
68109;SHT30;54893;49.864;19.084;2024-03-08T18:04:28;1.18;93.04
68109;SHT30;54893;49.864;19.084;2024-03-08T18:09:28;1.11;93.27
68109;SHT30;54893;49.864;19.084;2024-03-08T18:14:29;1.12;94.17
68109;SHT30;54893;49.864;19.084;2024-03-08T18:19:30;1.15;92.96
68109;SHT30;54893;49.864;19.084;2024-03-08T18:24:33;1.14;94.46
68109;SHT30;54893;49.864;19.084;2024-03-08T18:29:33;1.12;94.08
68109;SHT30;54893;49.864;19.084;2024-03-08T18:34:34;1.18;95.35
68109;SHT30;54893;49.864;19.084;2024-03-08T18:39:34;1.24;95.66
68109;SHT30;54893;49.864;19.084;2024-03-08T18:44:37;1.29;94.23
68109;SHT30;54893;49.864;19.084;2024-03-08T18:49:37;1.25;95.48
68109;SHT30;54893;49.864;19.084;2024-03-08T18:54:38;1.14;96.06
68109;SHT30;54893;49.864;19.084;2024-03-08T18:59:41;0.98;96.28
68109;SHT30;54893;49.864;19.084;2024-03-08T19:04:42;0.92;94.85
68109;SHT30;54893;49.864;19.084;2024-03-08T19:09:43;0.88;96.32
68109;SHT30;54893;49.864;19.084;2024-03-08T19:14:45;0.71;96.78
68109;SHT30;54893;49.864;19.084;2024-03-08T19:19:47;0.53;97.44
68109;SHT30;54893;49.864;19.084;2024-03-08T19:24:52;0.51;98.32
68109;SHT30;54893;49.864;19.084;2024-03-08T19:29:52;0.41;98.02
68109;SHT30;54893;49.864;19.084;2024-03-08T19:34:53;0.31;98.23
68109;SHT30;54893;49.864;19.084;2024-03-08T19:39:53;0.26;98.17
68109;SHT30;54893;49.864;19.084;2024-03-08T19:44:53;0.26;97.97
68109;SHT30;54893;49.864;19.084;2024-03-08T19:49:55;0.18;97.14
68109;SHT30;54893;49.864;19.084;2024-03-08T19:54:59;0.11;98.15
68109;SHT30;54893;49.864;19.084;2024-03-08T20:00:01;0.02;98.56
68109;SHT30;54893;49.864;19.084;2024-03-08T20:05:01;0.07;99.06
68109;SHT30;54893;49.864;19.084;2024-03-08T20:10:04;0.07;99.16
68109;SHT30;54893;49.864;19.084;2024-03-08T20:15:14;0.06;99.10
68109;SHT30;54893;49.864;19.084;2024-03-08T20:20:15;0.06;99.99
68109;SHT30;54893;49.864;19.084;2024-03-08T20:25:19;-0.14;99.99
68109;SHT30;54893;49.864;19.084;2024-03-08T20:30:26;-0.37;99.99
68109;SHT30;54893;49.864;19.084;2024-03-08T20:35:28;-0.49;99.99
68109;SHT30;54893;49.864;19.084;2024-03-08T20:40:29;-0.62;99.99
68109;SHT30;54893;49.864;19.084;2024-03-08T20:45:39;-0.65;99.99
68109;SHT30;54893;49.864;19.084;2024-03-08T20:50:39;-0.71;99.99
68109;SHT30;54893;49.864;19.084;2024-03-08T20:55:42;-0.66;99.99
68109;SHT30;54893;49.864;19.084;2024-03-08T21:00:45;-0.69;99.99
68109;SHT30;54893;49.864;19.084;2024-03-08T21:05:55;-0.79;99.99
68109;SHT30;54893;49.864;19.084;2024-03-08T21:10:56;-0.89;99.99
68109;SHT30;54893;49.864;19.084;2024-03-08T21:15:57;-0.96;99.99
68109;SHT30;54893;49.864;19.084;2024-03-08T21:20:59;-1.03;99.99
68109;SHT30;54893;49.864;19.084;2024-03-08T21:26:01;-1.15;99.99
68109;SHT30;54893;49.864;19.084;2024-03-08T21:31:02;-1.21;99.99
68109;SHT30;54893;49.864;19.084;2024-03-08T21:36:02;-1.27;99.99
68109;SHT30;54893;49.864;19.084;2024-03-08T21:41:03;-1.25;99.99
68109;SHT30;54893;49.864;19.084;2024-03-08T21:46:08;-1.16;99.99
68109;SHT30;54893;49.864;19.084;2024-03-08T21:51:11;-1.15;99.99
68109;SHT30;54893;49.864;19.084;2024-03-08T21:56:13;-1.12;99.99
68109;SHT30;54893;49.864;19.084;2024-03-08T22:01:14;-1.10;99.99
68109;SHT30;54893;49.864;19.084;2024-03-08T22:06:17;-1.12;99.99
68109;SHT30;54893;49.864;19.084;2024-03-08T22:11:21;-1.19;99.99
68109;SHT30;54893;49.864;19.084;2024-03-08T22:16:23;-1.25;99.99
68109;SHT30;54893;49.864;19.084;2024-03-08T22:21:23;-1.35;99.99
68109;SHT30;54893;49.864;19.084;2024-03-08T22:26:24;-1.36;99.99
68109;SHT30;54893;49.864;19.084;2024-03-08T22:31:25;-1.46;99.99
68109;SHT30;54893;49.864;19.084;2024-03-08T22:36:27;-1.46;99.99
68109;SHT30;54893;49.864;19.084;2024-03-08T22:41:27;-1.42;99.99
68109;SHT30;54893;49.864;19.084;2024-03-08T22:46:29;-1.44;99.99
68109;SHT30;54893;49.864;19.084;2024-03-08T22:51:31;-1.50;99.99
68109;SHT30;54893;49.864;19.084;2024-03-08T22:56:34;-1.56;99.99
68109;SHT30;54893;49.864;19.084;2024-03-08T23:01:36;-1.59;99.99
68109;SHT30;54893;49.864;19.084;2024-03-08T23:06:38;-1.59;99.99
68109;SHT30;54893;49.864;19.084;2024-03-08T23:11:40;-1.56;99.99
68109;SHT30;54893;49.864;19.084;2024-03-08T23:16:41;-1.67;99.99
68109;SHT30;54893;49.864;19.084;2024-03-08T23:21:46;-1.63;99.99
68109;SHT30;54893;49.864;19.084;2024-03-08T23:26:49;-1.43;99.99
68109;SHT30;54893;49.864;19.084;2024-03-08T23:31:50;-1.44;99.99
68109;SHT30;54893;49.864;19.084;2024-03-08T23:36:50;-1.46;99.99
68109;SHT30;54893;49.864;19.084;2024-03-08T23:41:51;-1.53;99.99
68109;SHT30;54893;49.864;19.084;2024-03-08T23:46:51;-1.80;99.99
68109;SHT30;54893;49.864;19.084;2024-03-08T23:51:52;-1.93;99.99
68109;SHT30;54893;49.864;19.084;2024-03-08T23:56:52;-1.98;99.99
